createdAt,value
2017-04-03T00:02:40.367Z,31
2017-04-03T00:12:40.429Z,28
2017-04-03T00:22:40.350Z,28
2017-04-03T00:32:40.324Z,28
2017-04-03T00:42:40.392Z,28
2017-04-03T00:52:40.345Z,27
2017-04-03T01:02:40.325Z,24
2017-04-03T01:12:40.353Z,32
2017-04-03T01:22:40.357Z,32
2017-04-03T01:32:40.539Z,38
2017-04-03T01:42:40.358Z,34
2017-04-03T01:52:40.313Z,35
2017-04-03T02:02:40.371Z,32
2017-04-03T02:12:40.319Z,30
2017-04-03T02:22:40.302Z,23
2017-04-03T02:32:40.353Z,26
2017-04-03T02:42:40.347Z,22
2017-04-03T02:52:40.435Z,29
2017-04-03T03:02:40.330Z,29
2017-04-03T03:12:40.315Z,28
2017-04-03T03:22:40.372Z,26
2017-04-03T03:32:40.335Z,29
2017-04-03T03:42:40.294Z,26
2017-04-03T03:52:40.353Z,26
2017-04-03T04:02:40.328Z,32
2017-04-03T04:12:40.273Z,28
2017-04-03T04:22:40.361Z,27
2017-04-03T04:32:40.294Z,30
2017-04-03T04:42:40.374Z,26
2017-04-03T04:52:40.334Z,26
2017-04-03T05:02:40.280Z,32
2017-04-03T05:12:40.329Z,18
2017-04-03T05:22:40.323Z,21
2017-04-03T05:32:40.273Z,23
2017-04-03T05:42:40.748Z,30
2017-04-03T05:52:40.263Z,28
2017-04-03T06:02:40.391Z,26
2017-04-03T06:12:40.350Z,33
2017-04-03T06:22:40.296Z,40
2017-04-03T06:32:40.333Z,35
2017-04-03T06:42:40.308Z,39
2017-04-03T06:52:40.282Z,45
2017-04-03T07:02:40.357Z,48
2017-04-03T07:12:40.357Z,29
2017-04-03T07:22:40.288Z,22
2017-04-03T07:32:41.047Z,31
2017-04-03T07:52:40.333Z,18
2017-04-03T08:02:40.226Z,15
2017-04-03T08:12:40.220Z,13
2017-04-03T08:22:40.240Z,13
2017-04-03T08:32:40.240Z,12
2017-04-03T08:42:40.234Z,12
2017-04-03T08:52:40.241Z,13
2017-04-03T09:02:40.240Z,14
2017-04-03T09:12:40.220Z,15
2017-04-03T09:22:40.239Z,13
2017-04-03T09:32:40.261Z,14
2017-04-03T09:42:40.239Z,15
2017-04-03T09:52:40.225Z,16
2017-04-03T10:02:42.384Z,13
2017-04-03T10:12:40.313Z,13
2017-04-03T10:22:40.247Z,15
2017-04-03T10:32:40.223Z,14
2017-04-03T10:42:40.247Z,13
2017-04-03T10:52:40.245Z,16
2017-04-03T11:02:40.263Z,17
2017-04-03T11:12:40.243Z,15
2017-04-03T11:22:40.254Z,14
2017-04-03T11:32:40.368Z,14
2017-04-03T11:42:40.221Z,16
2017-04-03T11:52:50.032Z,16
2017-04-03T12:02:40.281Z,13
2017-04-03T12:12:40.272Z,19
2017-04-03T12:22:40.259Z,16
2017-04-03T12:52:40.530Z,16
2017-04-03T13:02:40.989Z,14
2017-04-03T13:12:40.614Z,15
2017-04-03T13:22:40.336Z,16
2017-04-03T13:32:57.498Z,15
2017-04-03T13:42:54.292Z,14
2017-04-03T13:52:40.362Z,12
2017-04-03T14:02:40.393Z,12
2017-04-03T14:12:40.331Z,14
2017-04-03T14:22:40.499Z,13
2017-04-03T14:32:40.334Z,13
2017-04-03T14:42:40.724Z,13
2017-04-03T14:52:40.375Z,14
2017-04-03T15:02:40.329Z,12
2017-04-03T15:12:40.273Z,13
2017-04-03T15:22:40.372Z,11
2017-04-03T15:32:40.676Z,13
2017-04-03T15:42:40.764Z,12
2017-04-03T15:52:40.436Z,14
2017-04-03T16:02:40.358Z,16
2017-04-03T16:12:40.326Z,14
2017-04-03T16:22:47.875Z,14
2017-04-03T16:32:40.361Z,18
2017-04-03T16:42:40.308Z,15
2017-04-03T16:52:41.793Z,14
2017-04-03T17:02:40.374Z,17
2017-04-03T17:12:41.334Z,19
2017-04-03T17:22:40.304Z,17
2017-04-03T17:32:40.376Z,16
2017-04-03T17:42:40.284Z,16
2017-04-03T17:52:43.670Z,16
2017-04-03T18:02:40.391Z,16
2017-04-03T18:12:42.368Z,16
2017-04-03T18:22:52.325Z,15
2017-04-03T18:32:40.340Z,15
2017-04-03T18:42:40.292Z,13
2017-04-03T18:52:40.303Z,15
2017-04-03T19:02:40.310Z,15
2017-04-03T19:12:40.231Z,15
2017-04-03T19:22:40.264Z,13
2017-04-03T19:32:40.310Z,11
2017-04-03T19:42:40.394Z,12
2017-04-03T19:52:40.252Z,13
2017-04-03T20:02:40.266Z,12
2017-04-03T20:12:40.261Z,12
2017-04-03T20:22:40.354Z,14
2017-04-03T20:32:41.640Z,13
2017-04-03T20:42:42.094Z,13
2017-04-03T20:52:40.487Z,15
2017-04-03T21:02:40.946Z,15
2017-04-03T21:13:31.917Z,19
2017-04-03T21:23:11.505Z,17
2017-04-03T21:33:43.820Z,19
2017-04-03T21:42:40.593Z,20
2017-04-03T21:52:40.455Z,20
2017-04-03T22:02:52.737Z,21
2017-04-03T22:22:40.303Z,20
2017-04-03T22:32:40.198Z,23
2017-04-03T22:42:40.265Z,22
2017-04-03T22:53:19.631Z,27
2017-04-03T23:02:40.262Z,27
2017-04-03T23:12:40.234Z,25
2017-04-03T23:22:40.208Z,26
2017-04-03T23:32:40.266Z,28
2017-04-03T23:42:40.226Z,39
2017-04-03T23:52:40.136Z,30
